METAR Data
IDs: Format: Raw Decoded Include TAF

Data at: 0209 UTC 24 Oct 2019

METAR for:KBNW (Boone Muni, IA, US)
Text:KBNW 240155Z AUTO 34006KT 10SM OVC034 04/04 A3010 RMK AO2 P0001
Temperature: 4.0°C ( 39°F)
Dewpoint: 4.0°C ( 39°F) [RH = 100%]
Pressure (altimeter):30.10 inches Hg (1019.4 mb)
Winds:from the NNW (340 degrees) at 7 MPH (6 knots; 3.1 m/s)
Visibility:10 or more sm (16+ km)
Ceiling:3400 feet AGL
Clouds: overcast cloud deck at 3400 feet AGL
QC Flag:automated observation with no human augmentation